sensor_id;sensor_type;location;lat;lon;timestamp;pressure;altitude;pressure_sealevel;temperature;humidity
41654;BME280;68687;52.030;7.110;2023-08-12T00:00:12;101104.03;;;21.20;100.00
41654;BME280;68687;52.030;7.110;2023-08-12T00:02:41;101110.84;;;21.06;100.00
41654;BME280;68687;52.030;7.110;2023-08-12T00:05:07;101096.06;;;20.90;100.00
41654;BME280;68687;52.030;7.110;2023-08-12T00:07:33;101092.84;;;20.93;100.00
41654;BME280;68687;52.030;7.110;2023-08-12T00:10:03;101087.41;;;20.82;100.00
41654;BME280;68687;52.030;7.110;2023-08-12T00:12:33;101088.00;;;20.72;100.00
41654;BME280;68687;52.030;7.110;2023-08-12T00:14:59;101089.59;;;20.56;100.00
41654;BME280;68687;52.030;7.110;2023-08-12T00:17:24;101083.66;;;20.59;100.00
41654;BME280;68687;52.030;7.110;2023-08-12T00:19:49;101081.59;;;20.78;100.00
41654;BME280;68687;52.030;7.110;2023-08-12T00:22:15;101075.09;;;20.67;100.00
41654;BME280;68687;52.030;7.110;2023-08-12T00:24:40;101075.28;;;20.78;100.00
41654;BME280;68687;52.030;7.110;2023-08-12T00:27:06;101077.44;;;20.76;100.00
41654;BME280;68687;52.030;7.110;2023-08-12T00:29:34;101085.38;;;20.89;100.00
41654;BME280;68687;52.030;7.110;2023-08-12T00:32:00;101082.63;;;21.01;100.00
41654;BME280;68687;52.030;7.110;2023-08-12T00:34:26;101076.56;;;21.10;100.00
41654;BME280;68687;52.030;7.110;2023-08-12T00:36:51;101068.97;;;21.01;100.00
41654;BME280;68687;52.030;7.110;2023-08-12T00:39:16;101064.97;;;20.91;100.00
41654;BME280;68687;52.030;7.110;2023-08-12T00:41:42;101063.66;;;20.94;100.00
41654;BME280;68687;52.030;7.110;2023-08-12T00:44:07;101059.16;;;20.88;100.00
41654;BME280;68687;52.030;7.110;2023-08-12T00:46:33;101059.28;;;20.81;100.00
41654;BME280;68687;52.030;7.110;2023-08-12T00:49:00;101046.00;;;20.73;100.00
41654;BME280;68687;52.030;7.110;2023-08-12T00:51:25;101041.06;;;20.47;100.00
41654;BME280;68687;52.030;7.110;2023-08-12T00:53:51;101034.06;;;20.39;100.00
41654;BME280;68687;52.030;7.110;2023-08-12T00:56:17;101040.00;;;20.59;100.00
41654;BME280;68687;52.030;7.110;2023-08-12T00:58:43;101030.75;;;20.60;100.00
41654;BME280;68687;52.030;7.110;2023-08-12T01:01:10;101033.25;;;20.50;100.00
41654;BME280;68687;52.030;7.110;2023-08-12T01:03:36;101027.94;;;20.55;100.00
41654;BME280;68687;52.030;7.110;2023-08-12T01:06:02;101026.38;;;20.48;100.00
41654;BME280;68687;52.030;7.110;2023-08-12T01:08:30;101021.16;;;20.58;100.00
41654;BME280;68687;52.030;7.110;2023-08-12T01:11:04;101015.13;;;20.56;100.00
41654;BME280;68687;52.030;7.110;2023-08-12T01:13:42;101012.63;;;20.43;100.00
41654;BME280;68687;52.030;7.110;2023-08-12T01:16:11;101006.34;;;20.42;100.00
41654;BME280;68687;52.030;7.110;2023-08-12T01:18:39;101009.31;;;20.41;100.00
41654;BME280;68687;52.030;7.110;2023-08-12T01:21:07;100994.81;;;20.52;100.00
41654;BME280;68687;52.030;7.110;2023-08-12T01:23:34;100973.50;;;20.37;100.00
41654;BME280;68687;52.030;7.110;2023-08-12T01:25:59;100977.78;;;20.33;100.00
41654;BME280;68687;52.030;7.110;2023-08-12T01:28:25;100982.38;;;20.21;100.00
41654;BME280;68687;52.030;7.110;2023-08-12T01:30:56;100972.56;;;20.08;100.00
41654;BME280;68687;52.030;7.110;2023-08-12T01:33:39;100967.47;;;20.12;100.00
41654;BME280;68687;52.030;7.110;2023-08-12T01:36:16;100972.31;;;20.21;100.00
41654;BME280;68687;52.030;7.110;2023-08-12T01:38:43;100972.78;;;19.95;100.00
41654;BME280;68687;52.030;7.110;2023-08-12T01:41:12;100965.72;;;20.05;100.00
41654;BME280;68687;52.030;7.110;2023-08-12T01:43:39;100965.56;;;20.24;100.00
41654;BME280;68687;52.030;7.110;2023-08-12T01:46:05;100958.94;;;20.20;100.00
41654;BME280;68687;52.030;7.110;2023-08-12T01:48:31;100973.63;;;20.19;100.00
41654;BME280;68687;52.030;7.110;2023-08-12T01:50:56;100961.31;;;20.04;100.00
41654;BME280;68687;52.030;7.110;2023-08-12T01:53:21;100971.47;;;20.21;100.00
41654;BME280;68687;52.030;7.110;2023-08-12T01:55:49;100964.38;;;20.31;100.00
41654;BME280;68687;52.030;7.110;2023-08-12T01:58:15;100962.97;;;20.41;100.00
41654;BME280;68687;52.030;7.110;2023-08-12T02:00:40;100962.81;;;20.47;100.00
41654;BME280;68687;52.030;7.110;2023-08-12T02:03:06;100948.69;;;20.50;100.00
41654;BME280;68687;52.030;7.110;2023-08-12T02:05:32;100949.19;;;20.47;100.00
41654;BME280;68687;52.030;7.110;2023-08-12T02:07:57;100943.03;;;20.40;100.00
41654;BME280;68687;52.030;7.110;2023-08-12T02:10:23;100951.00;;;20.42;100.00
41654;BME280;68687;52.030;7.110;2023-08-12T02:12:48;100951.91;;;20.35;100.00
41654;BME280;68687;52.030;7.110;2023-08-12T02:15:13;100959.50;;;20.33;100.00
41654;BME280;68687;52.030;7.110;2023-08-12T02:17:39;100960.25;;;20.29;100.00
41654;BME280;68687;52.030;7.110;2023-08-12T02:20:05;100956.78;;;20.22;100.00
41654;BME280;68687;52.030;7.110;2023-08-12T02:22:30;100951.94;;;20.12;100.00
41654;BME280;68687;52.030;7.110;2023-08-12T02:24:55;100948.63;;;20.10;100.00
41654;BME280;68687;52.030;7.110;2023-08-12T02:27:21;100951.94;;;20.12;100.00
41654;BME280;68687;52.030;7.110;2023-08-12T02:29:46;100957.06;;;20.09;100.00
41654;BME280;68687;52.030;7.110;2023-08-12T02:32:11;100954.56;;;20.07;100.00
41654;BME280;68687;52.030;7.110;2023-08-12T02:34:37;100948.28;;;19.95;100.00
41654;BME280;68687;52.030;7.110;2023-08-12T02:37:02;100961.81;;;20.01;100.00
41654;BME280;68687;52.030;7.110;2023-08-12T02:39:27;100943.78;;;20.12;100.00
41654;BME280;68687;52.030;7.110;2023-08-12T02:41:53;100938.34;;;20.00;100.00
41654;BME280;68687;52.030;7.110;2023-08-12T02:44:18;100942.25;;;20.04;100.00
41654;BME280;68687;52.030;7.110;2023-08-12T02:46:43;100927.91;;;19.86;100.00
41654;BME280;68687;52.030;7.110;2023-08-12T02:49:09;100949.34;;;20.05;100.00
41654;BME280;68687;52.030;7.110;2023-08-12T02:51:34;100941.75;;;19.96;100.00
41654;BME280;68687;52.030;7.110;2023-08-12T02:53:59;100942.72;;;19.78;100.00
41654;BME280;68687;52.030;7.110;2023-08-12T02:56:24;100943.91;;;19.82;100.00
41654;BME280;68687;52.030;7.110;2023-08-12T02:58:50;100933.72;;;19.89;100.00
41654;BME280;68687;52.030;7.110;2023-08-12T03:01:15;100914.78;;;19.83;100.00
41654;BME280;68687;52.030;7.110;2023-08-12T03:03:41;100925.19;;;19.86;100.00
41654;BME280;68687;52.030;7.110;2023-08-12T03:06:06;100929.47;;;19.82;100.00
41654;BME280;68687;52.030;7.110;2023-08-12T03:08:31;100935.97;;;19.81;100.00
41654;BME280;68687;52.030;7.110;2023-08-12T03:11:01;100922.84;;;19.78;100.00
41654;BME280;68687;52.030;7.110;2023-08-12T03:13:28;100919.03;;;19.79;100.00
41654;BME280;68687;52.030;7.110;2023-08-12T03:15:53;100927.09;;;19.73;100.00
41654;BME280;68687;52.030;7.110;2023-08-12T03:18:18;100925.41;;;19.61;100.00
41654;BME280;68687;52.030;7.110;2023-08-12T03:20:44;100931.81;;;19.66;100.00
41654;BME280;68687;52.030;7.110;2023-08-12T03:23:09;100925.19;;;19.86;100.00
41654;BME280;68687;52.030;7.110;2023-08-12T03:25:34;100925.53;;;19.89;100.00
41654;BME280;68687;52.030;7.110;2023-08-12T03:27:59;100918.09;;;19.85;100.00
41654;BME280;68687;52.030;7.110;2023-08-12T03:30:25;100929.81;;;19.85;100.00
41654;BME280;68687;52.030;7.110;2023-08-12T03:32:51;100922.69;;;19.96;100.00
41654;BME280;68687;52.030;7.110;2023-08-12T03:35:17;100920.44;;;19.93;100.00
41654;BME280;68687;52.030;7.110;2023-08-12T03:37:42;100909.69;;;19.86;100.00
41654;BME280;68687;52.030;7.110;2023-08-12T03:40:08;100916.19;;;19.85;100.00
41654;BME280;68687;52.030;7.110;2023-08-12T03:42:33;100908.72;;;19.69;100.00
41654;BME280;68687;52.030;7.110;2023-08-12T03:44:59;100918.81;;;19.80;100.00
41654;BME280;68687;52.030;7.110;2023-08-12T03:47:24;100920.94;;;19.78;100.00
41654;BME280;68687;52.030;7.110;2023-08-12T03:49:50;100921.19;;;19.77;100.00
41654;BME280;68687;52.030;7.110;2023-08-12T03:52:15;100924.50;;;19.79;100.00
41654;BME280;68687;52.030;7.110;2023-08-12T03:54:41;100919.88;;;19.79;100.00
41654;BME280;68687;52.030;7.110;2023-08-12T03:57:06;100915.25;;;19.80;100.00
41654;BME280;68687;52.030;7.110;2023-08-12T03:59:31;100912.28;;;19.81;100.00
41654;BME280;68687;52.030;7.110;2023-08-12T04:01:57;100908.00;;;19.62;100.00
41654;BME280;68687;52.030;7.110;2023-08-12T04:04:23;100911.31;;;19.52;100.00
41654;BME280;68687;52.030;7.110;2023-08-12T04:06:48;100920.69;;;19.68;100.00
41654;BME280;68687;52.030;7.110;2023-08-12T04:09:19;100912.41;;;19.74;100.00
41654;BME280;68687;52.030;7.110;2023-08-12T04:11:45;100910.16;;;19.60;100.00
41654;BME280;68687;52.030;7.110;2023-08-12T04:14:10;100911.22;;;19.59;100.00
41654;BME280;68687;52.030;7.110;2023-08-12T04:16:35;100901.63;;;19.56;100.00
41654;BME280;68687;52.030;7.110;2023-08-12T04:19:01;100890.72;;;19.56;100.00
41654;BME280;68687;52.030;7.110;2023-08-12T04:21:27;100905.06;;;19.63;100.00
41654;BME280;68687;52.030;7.110;2023-08-12T04:23:52;100910.38;;;19.70;100.00
41654;BME280;68687;52.030;7.110;2023-08-12T04:26:18;100898.53;;;19.53;100.00
41654;BME280;68687;52.030;7.110;2023-08-12T04:28:43;100910.75;;;19.62;100.00
41654;BME280;68687;52.030;7.110;2023-08-12T04:31:08;100901.94;;;19.48;100.00
41654;BME280;68687;52.030;7.110;2023-08-12T04:33:34;100892.81;;;19.42;100.00
41654;BME280;68687;52.030;7.110;2023-08-12T04:35:59;100895.75;;;19.41;100.00
41654;BME280;68687;52.030;7.110;2023-08-12T04:38:25;100886.78;;;19.40;100.00
41654;BME280;68687;52.030;7.110;2023-08-12T04:40:52;100879.66;;;19.39;100.00
41654;BME280;68687;52.030;7.110;2023-08-12T04:43:18;100874.22;;;19.39;100.00
41654;BME280;68687;52.030;7.110;2023-08-12T04:45:45;100868.66;;;19.34;100.00
41654;BME280;68687;52.030;7.110;2023-08-12T04:48:11;100866.31;;;19.26;100.00
41654;BME280;68687;52.030;7.110;2023-08-12T04:50:36;100857.53;;;19.24;100.00
41654;BME280;68687;52.030;7.110;2023-08-12T04:53:04;100869.28;;;19.48;100.00
41654;BME280;68687;52.030;7.110;2023-08-12T04:55:30;100864.66;;;19.49;100.00
41654;BME280;68687;52.030;7.110;2023-08-12T04:57:55;100861.47;;;19.52;100.00
41654;BME280;68687;52.030;7.110;2023-08-12T05:00:21;100854.47;;;19.44;100.00
41654;BME280;68687;52.030;7.110;2023-08-12T05:02:47;100847.84;;;19.28;100.00
41654;BME280;68687;52.030;7.110;2023-08-12T05:05:12;100850.09;;;19.20;100.00
41654;BME280;68687;52.030;7.110;2023-08-12T05:07:38;100847.72;;;19.23;100.00
41654;BME280;68687;52.030;7.110;2023-08-12T05:10:03;100838.00;;;19.15;100.00
41654;BME280;68687;52.030;7.110;2023-08-12T05:12:29;100840.25;;;19.30;100.00
41654;BME280;68687;52.030;7.110;2023-08-12T05:14:54;100836.25;;;19.21;100.00
41654;BME280;68687;52.030;7.110;2023-08-12T05:17:19;100837.78;;;19.29;100.00
41654;BME280;68687;52.030;7.110;2023-08-12T05:19:45;100843.56;;;19.44;100.00
41654;BME280;68687;52.030;7.110;2023-08-12T05:22:10;100832.31;;;19.40;100.00
41654;BME280;68687;52.030;7.110;2023-08-12T05:24:35;100832.91;;;19.42;100.00
41654;BME280;68687;52.030;7.110;2023-08-12T05:27:01;100826.06;;;19.40;100.00
41654;BME280;68687;52.030;7.110;2023-08-12T05:29:26;100822.50;;;19.16;100.00
41654;BME280;68687;52.030;7.110;2023-08-12T05:31:51;100826.41;;;19.32;100.00
41654;BME280;68687;52.030;7.110;2023-08-12T05:34:17;100818.50;;;19.30;100.00
41654;BME280;68687;52.030;7.110;2023-08-12T05:36:42;100825.22;;;19.39;100.00
41654;BME280;68687;52.030;7.110;2023-08-12T05:39:07;100820.53;;;19.58;100.00
41654;BME280;68687;52.030;7.110;2023-08-12T05:41:33;100821.84;;;19.56;100.00
41654;BME280;68687;52.030;7.110;2023-08-12T05:43:58;100824.53;;;19.67;100.00
41654;BME280;68687;52.030;7.110;2023-08-12T05:46:23;100827.00;;;19.69;100.00
41654;BME280;68687;52.030;7.110;2023-08-12T05:48:49;100817.09;;;19.63;100.00
41654;BME280;68687;52.030;7.110;2023-08-12T05:51:14;100814.59;;;19.73;100.00
41654;BME280;68687;52.030;7.110;2023-08-12T05:53:39;100823.22;;;19.70;100.00
41654;BME280;68687;52.030;7.110;2023-08-12T05:56:04;100802.19;;;19.54;100.00
41654;BME280;68687;52.030;7.110;2023-08-12T05:58:30;100820.53;;;19.58;100.00
41654;BME280;68687;52.030;7.110;2023-08-12T06:00:55;100815.66;;;19.60;100.00
41654;BME280;68687;52.030;7.110;2023-08-12T06:03:20;100805.47;;;19.67;100.00
41654;BME280;68687;52.030;7.110;2023-08-12T06:05:47;100807.22;;;19.85;100.00
41654;BME280;68687;52.030;7.110;2023-08-12T06:08:13;100806.19;;;19.63;100.00
41654;BME280;68687;52.030;7.110;2023-08-12T06:10:39;100804.16;;;19.70;100.00
41654;BME280;68687;52.030;7.110;2023-08-12T06:13:04;100808.69;;;19.76;100.00
41654;BME280;68687;52.030;7.110;2023-08-12T06:15:30;100796.13;;;19.75;100.00
41654;BME280;68687;52.030;7.110;2023-08-12T06:17:55;100792.78;;;19.85;100.00
41654;BME280;68687;52.030;7.110;2023-08-12T06:20:21;100804.03;;;19.88;100.00
41654;BME280;68687;52.030;7.110;2023-08-12T06:22:46;100804.16;;;19.82;100.00
41654;BME280;68687;52.030;7.110;2023-08-12T06:25:12;100798.59;;;19.65;100.00
41654;BME280;68687;52.030;7.110;2023-08-12T06:27:37;100784.75;;;19.66;100.00
41654;BME280;68687;52.030;7.110;2023-08-12T06:30:03;100791.94;;;19.84;100.00
41654;BME280;68687;52.030;7.110;2023-08-12T06:32:29;100786.25;;;19.86;100.00
41654;BME280;68687;52.030;7.110;2023-08-12T06:34:54;100770.41;;;19.71;100.00
41654;BME280;68687;52.030;7.110;2023-08-12T06:37:19;100790.97;;;19.90;100.00
41654;BME280;68687;52.030;7.110;2023-08-12T06:39:45;100788.84;;;19.92;100.00
41654;BME280;68687;52.030;7.110;2023-08-12T06:42:10;100773.19;;;19.99;100.00
41654;BME280;68687;52.030;7.110;2023-08-12T06:44:35;100790.22;;;20.06;100.00
41654;BME280;68687;52.030;7.110;2023-08-12T06:47:00;100776.69;;;19.83;100.00
41654;BME280;68687;52.030;7.110;2023-08-12T06:49:26;100793.44;;;20.03;100.00
41654;BME280;68687;52.030;7.110;2023-08-12T06:51:51;100782.31;;;20.05;100.00
41654;BME280;68687;52.030;7.110;2023-08-12T06:54:17;100793.06;;;20.12;100.00
41654;BME280;68687;52.030;7.110;2023-08-12T06:56:42;100788.28;;;20.19;100.00
41654;BME280;68687;52.030;7.110;2023-08-12T06:59:07;100782.97;;;20.12;100.00
41654;BME280;68687;52.030;7.110;2023-08-12T07:01:32;100782.16;;;20.12;100.00
41654;BME280;68687;52.030;7.110;2023-08-12T07:03:58;100801.88;;;20.30;100.00
41654;BME280;68687;52.030;7.110;2023-08-12T07:06:23;100794.06;;;20.22;100.00
41654;BME280;68687;52.030;7.110;2023-08-12T07:08:49;100806.97;;;20.27;100.00
41654;BME280;68687;52.030;7.110;2023-08-12T07:11:14;100795.69;;;20.35;100.00
41654;BME280;68687;52.030;7.110;2023-08-12T07:13:39;100778.22;;;20.19;100.00
41654;BME280;68687;52.030;7.110;2023-08-12T07:16:05;100798.91;;;20.32;100.00
41654;BME280;68687;52.030;7.110;2023-08-12T07:18:30;100760.94;;;20.14;100.00
41654;BME280;68687;52.030;7.110;2023-08-12T07:20:56;100760.84;;;20.09;100.00
41654;BME280;68687;52.030;7.110;2023-08-12T07:23:23;100791.06;;;20.07;100.00
41654;BME280;68687;52.030;7.110;2023-08-12T07:25:49;100788.78;;;20.16;100.00
41654;BME280;68687;52.030;7.110;2023-08-12T07:28:15;100759.69;;;19.93;100.00
41654;BME280;68687;52.030;7.110;2023-08-12T07:30:40;100764.13;;;19.82;100.00
41654;BME280;68687;52.030;7.110;2023-08-12T07:33:07;100793.94;;;20.00;100.00
41654;BME280;68687;52.030;7.110;2023-08-12T07:35:32;100778.25;;;20.08;100.00
41654;BME280;68687;52.030;7.110;2023-08-12T07:37:57;100768.97;;;20.20;100.00
41654;BME280;68687;52.030;7.110;2023-08-12T07:40:23;100787.66;;;20.28;100.00
41654;BME280;68687;52.030;7.110;2023-08-12T07:42:48;100781.81;;;20.08;100.00
41654;BME280;68687;52.030;7.110;2023-08-12T07:45:14;100774.38;;;20.03;100.00
41654;BME280;68687;52.030;7.110;2023-08-12T07:47:39;100764.63;;;19.67;100.00
41654;BME280;68687;52.030;7.110;2023-08-12T07:50:05;100759.91;;;19.63;100.00
41654;BME280;68687;52.030;7.110;2023-08-12T07:52:30;100756.00;;;19.35;100.00
41654;BME280;68687;52.030;7.110;2023-08-12T07:54:56;100761.56;;;19.29;100.00
41654;BME280;68687;52.030;7.110;2023-08-12T07:57:21;100778.47;;;19.42;100.00
41654;BME280;68687;52.030;7.110;2023-08-12T07:59:49;100757.56;;;19.20;100.00
41654;BME280;68687;52.030;7.110;2023-08-12T08:02:15;100738.13;;;19.16;100.00
41654;BME280;68687;52.030;7.110;2023-08-12T08:04:40;100716.38;;;19.16;100.00
41654;BME280;68687;52.030;7.110;2023-08-12T08:07:05;100739.69;;;19.24;100.00
41654;BME280;68687;52.030;7.110;2023-08-12T08:09:31;100743.00;;;19.14;100.00
41654;BME280;68687;52.030;7.110;2023-08-12T08:11:56;100742.75;;;19.27;100.00
41654;BME280;68687;52.030;7.110;2023-08-12T08:14:21;100736.16;;;19.23;100.00
41654;BME280;68687;52.030;7.110;2023-08-12T08:16:46;100730.69;;;19.11;100.00
41654;BME280;68687;52.030;7.110;2023-08-12T08:19:12;100712.84;;;19.04;100.00
41654;BME280;68687;52.030;7.110;2023-08-12T08:21:38;100714.13;;;19.13;100.00
41654;BME280;68687;52.030;7.110;2023-08-12T08:24:03;100731.75;;;19.34;100.00
41654;BME280;68687;52.030;7.110;2023-08-12T08:26:28;100723.19;;;19.42;100.00
41654;BME280;68687;52.030;7.110;2023-08-12T08:28:54;100725.72;;;19.55;100.00
41654;BME280;68687;52.030;7.110;2023-08-12T08:31:19;100702.16;;;19.37;100.00
41654;BME280;68687;52.030;7.110;2023-08-12T08:33:44;100713.38;;;19.53;100.00
41654;BME280;68687;52.030;7.110;2023-08-12T08:36:10;100712.53;;;19.64;100.00
41654;BME280;68687;52.030;7.110;2023-08-12T08:38:36;100722.22;;;19.71;100.00
41654;BME280;68687;52.030;7.110;2023-08-12T08:41:02;100728.03;;;19.75;100.00
41654;BME280;68687;52.030;7.110;2023-08-12T08:43:32;100720.13;;;19.62;100.00
41654;BME280;68687;52.030;7.110;2023-08-12T08:45:58;100732.50;;;19.81;100.00
41654;BME280;68687;52.030;7.110;2023-08-12T08:48:25;100728.97;;;19.69;100.00
41654;BME280;68687;52.030;7.110;2023-08-12T08:50:50;100719.38;;;19.66;100.00
41654;BME280;68687;52.030;7.110;2023-08-12T08:53:17;100710.41;;;19.66;100.00
41654;BME280;68687;52.030;7.110;2023-08-12T08:55:44;100717.50;;;19.67;100.00
41654;BME280;68687;52.030;7.110;2023-08-12T08:58:09;100730.16;;;19.73;100.00
41654;BME280;68687;52.030;7.110;2023-08-12T09:00:36;100721.75;;;19.74;100.00
41654;BME280;68687;52.030;7.110;2023-08-12T09:03:03;100701.88;;;19.62;100.00
41654;BME280;68687;52.030;7.110;2023-08-12T09:05:31;100719.22;;;19.85;100.00
41654;BME280;68687;52.030;7.110;2023-08-12T09:07:57;100717.72;;;20.05;100.00
41654;BME280;68687;52.030;7.110;2023-08-12T09:10:26;100712.94;;;20.13;100.00
41654;BME280;68687;52.030;7.110;2023-08-12T09:12:52;100714.19;;;20.05;100.00
41654;BME280;68687;52.030;7.110;2023-08-12T09:15:17;100713.34;;;20.04;100.00
41654;BME280;68687;52.030;7.110;2023-08-12T09:17:44;100707.84;;;20.16;100.00
41654;BME280;68687;52.030;7.110;2023-08-12T09:20:09;100695.72;;;19.95;100.00
41654;BME280;68687;52.030;7.110;2023-08-12T09:22:42;100697.84;;;20.05;100.00
41654;BME280;68687;52.030;7.110;2023-08-12T09:25:08;100704.69;;;20.24;100.00
41654;BME280;68687;52.030;7.110;2023-08-12T09:27:36;100700.56;;;20.22;100.00
41654;BME280;68687;52.030;7.110;2023-08-12T09:30:04;100710.16;;;20.24;100.00
41654;BME280;68687;52.030;7.110;2023-08-12T09:32:30;100698.44;;;20.24;100.00
41654;BME280;68687;52.030;7.110;2023-08-12T09:34:55;100694.94;;;20.12;100.00
41654;BME280;68687;52.030;7.110;2023-08-12T09:37:23;100700.47;;;20.17;100.00
41654;BME280;68687;52.030;7.110;2023-08-12T09:39:49;100710.53;;;20.28;100.00
41654;BME280;68687;52.030;7.110;2023-08-12T09:42:16;100687.03;;;20.27;100.00
41654;BME280;68687;52.030;7.110;2023-08-12T09:44:42;100703.22;;;20.17;100.00
41654;BME280;68687;52.030;7.110;2023-08-12T09:47:08;100677.44;;;20.08;100.00
41654;BME280;68687;52.030;7.110;2023-08-12T09:49:35;100686.03;;;20.16;100.00
41654;BME280;68687;52.030;7.110;2023-08-12T09:52:01;100696.97;;;20.33;100.00
41654;BME280;68687;52.030;7.110;2023-08-12T09:54:35;100687.53;;;20.24;100.00
41654;BME280;68687;52.030;7.110;2023-08-12T09:57:02;100681.56;;;20.10;100.00
41654;BME280;68687;52.030;7.110;2023-08-12T09:59:31;100696.09;;;20.16;100.00
41654;BME280;68687;52.030;7.110;2023-08-12T10:01:58;100694.75;;;20.30;100.00
41654;BME280;68687;52.030;7.110;2023-08-12T10:04:27;100688.22;;;20.31;100.00
41654;BME280;68687;52.030;7.110;2023-08-12T10:06:54;100673.25;;;20.33;100.00
41654;BME280;68687;52.030;7.110;2023-08-12T10:09:20;100678.47;;;20.35;100.00
41654;BME280;68687;52.030;7.110;2023-08-12T10:11:46;100662.69;;;20.37;100.00
41654;BME280;68687;52.030;7.110;2023-08-12T10:14:12;100690.22;;;20.52;100.00
41654;BME280;68687;52.030;7.110;2023-08-12T10:16:38;100692.28;;;20.45;100.00
41654;BME280;68687;52.030;7.110;2023-08-12T10:19:06;100689.59;;;20.62;100.00
41654;BME280;68687;52.030;7.110;2023-08-12T10:21:32;100671.88;;;20.48;100.00
41654;BME280;68687;52.030;7.110;2023-08-12T10:23:58;100680.00;;;20.59;100.00
41654;BME280;68687;52.030;7.110;2023-08-12T10:26:27;100707.44;;;20.86;100.00
41654;BME280;68687;52.030;7.110;2023-08-12T10:28:54;100680.16;;;20.86;100.00
41654;BME280;68687;52.030;7.110;2023-08-12T10:31:20;100689.09;;;20.82;100.00
41654;BME280;68687;52.030;7.110;2023-08-12T10:33:46;100699.06;;;20.93;100.00
41654;BME280;68687;52.030;7.110;2023-08-12T10:36:15;100674.50;;;20.93;100.00
41654;BME280;68687;52.030;7.110;2023-08-12T10:38:40;100668.69;;;21.06;100.00
41654;BME280;68687;52.030;7.110;2023-08-12T10:41:20;100667.13;;;21.10;100.00
41654;BME280;68687;52.030;7.110;2023-08-12T10:43:51;100703.81;;;21.19;100.00
41654;BME280;68687;52.030;7.110;2023-08-12T10:46:28;100705.56;;;21.25;100.00
41654;BME280;68687;52.030;7.110;2023-08-12T10:49:07;100707.72;;;21.23;100.00
41654;BME280;68687;52.030;7.110;2023-08-12T10:51:41;100698.53;;;21.13;100.00
41654;BME280;68687;52.030;7.110;2023-08-12T10:54:33;100692.75;;;21.09;100.00
41654;BME280;68687;52.030;7.110;2023-08-12T11:02:32;100699.66;;;21.34;100.00
41654;BME280;68687;52.030;7.110;2023-08-12T11:05:07;100691.47;;;21.34;100.00
41654;BME280;68687;52.030;7.110;2023-08-12T11:07:38;100691.81;;;21.37;100.00
41654;BME280;68687;52.030;7.110;2023-08-12T11:10:14;100686.97;;;21.44;100.00
41654;BME280;68687;52.030;7.110;2023-08-12T11:13:03;100689.56;;;21.56;100.00
41654;BME280;68687;52.030;7.110;2023-08-12T11:15:41;100676.63;;;21.68;100.00
41654;BME280;68687;52.030;7.110;2023-08-12T11:18:14;100696.53;;;21.90;100.00
41654;BME280;68687;52.030;7.110;2023-08-12T11:20:40;100698.13;;;22.08;100.00
41654;BME280;68687;52.030;7.110;2023-08-12T11:23:06;100688.84;;;22.09;100.00
41654;BME280;68687;52.030;7.110;2023-08-12T11:25:34;100700.72;;;22.20;100.00
41654;BME280;68687;52.030;7.110;2023-08-12T11:28:00;100696.94;;;22.26;100.00
41654;BME280;68687;52.030;7.110;2023-08-12T11:30:26;100713.47;;;22.41;100.00
41654;BME280;68687;52.030;7.110;2023-08-12T11:32:53;100713.03;;;22.49;100.00
41654;BME280;68687;52.030;7.110;2023-08-12T11:35:20;100708.31;;;22.45;100.00
41654;BME280;68687;52.030;7.110;2023-08-12T11:37:47;100689.78;;;22.20;100.00
41654;BME280;68687;52.030;7.110;2023-08-12T11:40:15;100703.06;;;22.38;100.00
41654;BME280;68687;52.030;7.110;2023-08-12T11:43:28;100706.66;;;22.44;100.00
41654;BME280;68687;52.030;7.110;2023-08-12T11:45:41;100696.06;;;22.47;100.00
41654;BME280;68687;52.030;7.110;2023-08-12T11:48:07;100692.34;;;22.64;100.00
41654;BME280;68687;52.030;7.110;2023-08-12T11:50:33;100702.88;;;23.24;100.00
41654;BME280;68687;52.030;7.110;2023-08-12T11:52:58;100690.31;;;23.28;100.00
41654;BME280;68687;52.030;7.110;2023-08-12T11:55:24;100688.22;;;23.46;100.00
41654;BME280;68687;52.030;7.110;2023-08-12T11:57:50;100683.53;;;23.41;100.00
41654;BME280;68687;52.030;7.110;2023-08-12T12:00:16;100697.91;;;23.63;100.00
41654;BME280;68687;52.030;7.110;2023-08-12T12:02:50;100702.88;;;23.77;100.00
41654;BME280;68687;52.030;7.110;2023-08-12T12:05:17;100701.50;;;23.69;100.00
41654;BME280;68687;52.030;7.110;2023-08-12T12:07:43;100696.28;;;23.67;99.38
41654;BME280;68687;52.030;7.110;2023-08-12T12:10:25;100699.31;;;23.71;100.00
41654;BME280;68687;52.030;7.110;2023-08-12T12:12:54;100708.13;;;23.83;100.00
41654;BME280;68687;52.030;7.110;2023-08-12T12:15:19;100694.16;;;23.85;99.55
41654;BME280;68687;52.030;7.110;2023-08-12T12:17:46;100707.03;;;23.84;98.86
41654;BME280;68687;52.030;7.110;2023-08-12T12:20:12;100693.81;;;23.61;96.15
41654;BME280;68687;52.030;7.110;2023-08-12T12:22:41;100692.63;;;23.52;97.61
41654;BME280;68687;52.030;7.110;2023-08-12T12:25:13;100700.09;;;23.56;98.35
41654;BME280;68687;52.030;7.110;2023-08-12T12:27:39;100679.88;;;23.83;97.57
41654;BME280;68687;52.030;7.110;2023-08-12T12:30:09;100681.03;;;24.02;96.04
41654;BME280;68687;52.030;7.110;2023-08-12T12:32:35;100698.63;;;24.21;94.49
41654;BME280;68687;52.030;7.110;2023-08-12T12:35:01;100686.50;;;24.07;93.28
41654;BME280;68687;52.030;7.110;2023-08-12T12:37:28;100730.75;;;24.31;94.24
41654;BME280;68687;52.030;7.110;2023-08-12T12:39:53;100695.88;;;24.21;91.71
41654;BME280;68687;52.030;7.110;2023-08-12T12:42:19;100697.81;;;24.31;92.06